This is the latest recevied weather packets stored in our database for station/object VA3BOO. If no packets are shown the sender has not sent any weather packets the latest 10 day(s).
| Time | Temp. | Humidity | Pressure | Rain* | Wind** | Luminosity | Snow |
|---|---|---|---|---|---|---|---|
| 1777739704 | 8.33° C | 67% | 1012.8 hPa | 0 mm | - | 984 W/m² | - |
| 1777739404 | 8.89° C | 63% | 1012.8 hPa | 0 mm | - | 326 W/m² | - |
| 1777739104 | 8.89° C | 65% | 1012.8 hPa | 0 mm | - | 1046 W/m² | - |
| 1777738804 | 8.89° C | 65% | 1012.9 hPa | 0 mm | - | 966 W/m² | - |
| 1777738504 | 8.33° C | 66% | 1012.8 hPa | 0 mm | - | 579 W/m² | - |
| 1777738204 | 7.78° C | 67% | 1012.7 hPa | 0 mm | - | 424 W/m² | - |
| 1777737904 | 7.22° C | 69% | 1012.7 hPa | 0 mm | - | 517 W/m² | - |
| 1777737604 | 7.78° C | 65% | 1012.8 hPa | 0 mm | - | 225 W/m² | - |
| 1777737304 | 7.78° C | 64% | 1012.9 hPa | 0 mm | - | 238 W/m² | - |
| 1777737004 | 7.78° C | 63% | 1013 hPa | 0 mm | - | 343 W/m² | - |
| 1777736704 | 8.33° C | 58% | 1013.1 hPa | 0 mm | - | 226 W/m² | - |
| 1777736404 | 8.89° C | 60% | 1013.2 hPa | 0 mm | - | 231 W/m² | - |
| 1777736104 | 7.78° C | 63% | 1013.1 hPa | 0 mm | - | 405 W/m² | - |
| 1777735804 | 7.78° C | 62% | 1013 hPa | 0 mm | - | 259 W/m² | - |
| 1777735504 | 7.78° C | 62% | 1013.1 hPa | 0 mm | - | 256 W/m² | - |
| 1777735204 | 8.33° C | 62% | 1013.1 hPa | 0 mm | - | 229 W/m² | - |
| 1777734904 | 8.33° C | 62% | 1013 hPa | 0 mm | - | 847 W/m² | - |
| 1777734604 | 7.78° C | 65% | 1013.1 hPa | 0 mm | - | 332 W/m² | - |
| 1777734304 | 8.33° C | 65% | 1013.1 hPa | 0 mm | - | 305 W/m² | - |
| 1777734004 | 8.89° C | 61% | 1013.2 hPa | 0 mm | - | 281 W/m² | - |
| 1777733704 | 8.89° C | 63% | 1013.1 hPa | 0 mm | - | 766 W/m² | - |
| 1777733425 | 8.33° C | 62% | 1013.3 hPa | 0 mm | - | 701 W/m² | - |
| 1777733104 | 8.33° C | 63% | 1013.2 hPa | 0 mm | - | 196 W/m² | - |
| 1777732804 | 7.78° C | 65% | 1013.2 hPa | 0 mm | - | 222 W/m² | - |
| 1777732504 | 7.78° C | 64% | 1013.2 hPa | 0 mm | - | 243 W/m² | - |
* Rain latest hour (hover to see other rain measurements)
** Current wind speed in m/s (hover to see current wind gust speed)